createdAt,value
2019-03-28T00:01:15.808Z,76.61
2019-03-28T00:03:45.718Z,76.48
2019-03-28T00:06:16.602Z,76.27
2019-03-28T00:08:46.344Z,76.51
2019-03-28T00:11:16.123Z,76.53
2019-03-28T00:13:45.846Z,76.35
2019-03-28T00:16:15.622Z,76.14
2019-03-28T00:18:45.409Z,76.06
2019-03-28T00:21:15.172Z,76.12
2019-03-28T00:23:57.236Z,76.11
2019-03-28T00:26:30.437Z,76.15
2019-03-28T00:28:59.068Z,76.37
2019-03-28T00:31:28.801Z,76.49
2019-03-28T00:33:58.602Z,76.63
2019-03-28T00:36:28.432Z,76.83
2019-03-28T00:38:58.162Z,77.15
2019-03-28T00:41:27.920Z,77.48
2019-03-28T00:43:57.714Z,77.42
2019-03-28T00:46:27.451Z,77.29
2019-03-28T00:48:57.213Z,77.82
2019-03-28T00:51:26.975Z,77.66
2019-03-28T00:53:56.712Z,77.47
2019-03-28T00:56:26.524Z,77.72
2019-03-28T00:58:56.767Z,77.48
2019-03-28T01:01:26.537Z,77.68
2019-03-28T01:03:56.281Z,77.81
2019-03-28T01:06:26.080Z,77.98
2019-03-28T01:08:56.077Z,78.19
2019-03-28T01:11:25.886Z,78.77
2019-03-28T01:13:55.765Z,78.97
2019-03-28T01:16:25.502Z,79.00
2019-03-28T01:18:55.648Z,79.11
2019-03-28T01:21:25.382Z,79.45
2019-03-28T01:23:55.335Z,79.31
2019-03-28T01:26:25.125Z,79.35
2019-03-28T01:28:54.860Z,79.42
2019-03-28T01:31:24.732Z,78.73
2019-03-28T01:33:54.532Z,78.45
2019-03-28T01:36:24.256Z,78.31
2019-03-28T01:38:53.980Z,78.42
2019-03-28T01:41:23.735Z,78.31
2019-03-28T01:43:53.532Z,78.18
2019-03-28T01:46:23.246Z,78.19
2019-03-28T01:48:53.006Z,78.48
2019-03-28T01:51:22.745Z,78.54
2019-03-28T01:53:52.505Z,78.57
2019-03-28T01:56:24.994Z,79.31
2019-03-28T01:58:53.901Z,79.27
2019-03-28T02:01:23.674Z,78.81
2019-03-28T02:03:53.446Z,78.57
2019-03-28T02:06:23.215Z,78.89
2019-03-28T02:08:53.151Z,78.66
2019-03-28T02:11:22.906Z,78.83
2019-03-28T02:13:52.624Z,78.96
2019-03-28T02:16:22.355Z,78.79
2019-03-28T02:18:52.203Z,78.89
2019-03-28T02:21:21.931Z,78.87
2019-03-28T02:23:51.775Z,78.93
2019-03-28T02:26:24.385Z,78.71
2019-03-28T02:28:54.098Z,78.94
2019-03-28T02:31:23.871Z,79.17
2019-03-28T02:33:53.598Z,78.99
2019-03-28T02:36:23.314Z,79.07
2019-03-28T02:38:53.088Z,79.28
2019-03-28T02:41:22.835Z,79.56
2019-03-28T02:43:52.593Z,79.52
2019-03-28T02:46:22.744Z,79.71
2019-03-28T02:48:53.788Z,79.99
2019-03-28T02:51:23.719Z,80.02
2019-03-28T02:53:53.651Z,79.78
2019-03-28T02:56:23.403Z,80.30
2019-03-28T02:58:53.202Z,80.45
2019-03-28T03:01:22.999Z,79.51
2019-03-28T03:03:52.714Z,79.78
2019-03-28T03:06:22.435Z,80.07
2019-03-28T03:08:52.211Z,79.51
2019-03-28T03:11:21.954Z,79.49
2019-03-28T03:13:51.750Z,79.53
2019-03-28T03:16:22.704Z,80.21
2019-03-28T03:18:52.571Z,79.63
2019-03-28T03:21:22.327Z,79.65
2019-03-28T03:23:52.069Z,79.48
2019-03-28T03:26:21.850Z,79.56
2019-03-28T03:28:51.680Z,79.93
2019-03-28T03:31:22.128Z,80.02
2019-03-28T03:33:52.204Z,79.69
2019-03-28T03:36:22.011Z,79.62
2019-03-28T03:38:51.815Z,80.08
2019-03-28T03:41:21.563Z,80.10
2019-03-28T03:43:51.406Z,79.48
2019-03-28T03:46:21.123Z,79.26
2019-03-28T03:48:50.989Z,79.33
2019-03-28T03:51:20.795Z,79.42
2019-03-28T03:53:50.486Z,80.11
2019-03-28T03:56:20.243Z,79.86
2019-03-28T03:58:50.012Z,79.60
2019-03-28T04:01:19.744Z,79.76
2019-03-28T04:03:49.625Z,80.12
2019-03-28T04:06:19.394Z,80.32
2019-03-28T04:08:49.115Z,79.96
2019-03-28T04:11:18.873Z,79.79
2019-03-28T04:13:48.662Z,79.71
2019-03-28T04:16:21.134Z,79.87
2019-03-28T04:18:50.905Z,79.97
2019-03-28T04:21:20.966Z,80.27
2019-03-28T04:23:50.744Z,79.92
2019-03-28T04:26:20.507Z,79.87
2019-03-28T04:28:50.365Z,79.87
2019-03-28T04:31:20.104Z,79.98
2019-03-28T04:33:49.812Z,80.05
2019-03-28T04:36:19.601Z,80.12
2019-03-28T04:38:49.924Z,80.16
2019-03-28T04:41:20.337Z,80.25
2019-03-28T04:43:50.090Z,80.36
2019-03-28T04:46:19.821Z,80.40
2019-03-28T04:48:50.847Z,80.56
2019-03-28T04:51:20.713Z,80.50
2019-03-28T04:53:50.427Z,80.48
2019-03-28T04:56:20.174Z,80.54
2019-03-28T04:58:49.917Z,80.51
2019-03-28T05:01:19.676Z,80.50
2019-03-28T05:03:49.602Z,80.58
2019-03-28T05:06:19.385Z,80.59
2019-03-28T05:08:49.226Z,80.70
2019-03-28T05:11:18.952Z,80.76
2019-03-28T05:13:48.667Z,80.89
2019-03-28T05:16:18.421Z,80.90
2019-03-28T05:18:48.271Z,80.90
2019-03-28T05:21:18.133Z,80.97
2019-03-28T05:23:47.897Z,80.85
2019-03-28T05:26:17.660Z,80.78
2019-03-28T05:28:56.953Z,80.83
2019-03-28T05:31:18.962Z,80.81
2019-03-28T05:33:48.677Z,80.87
2019-03-28T05:36:18.582Z,80.92
2019-03-28T05:38:48.557Z,81.00
2019-03-28T05:41:18.311Z,81.08
2019-03-28T05:43:48.077Z,80.81
2019-03-28T05:46:17.801Z,81.04
2019-03-28T05:48:47.534Z,81.07
2019-03-28T05:51:17.299Z,81.20
2019-03-28T05:53:47.067Z,81.76
2019-03-28T05:56:16.836Z,81.72
2019-03-28T05:58:46.594Z,81.44
2019-03-28T06:01:16.601Z,81.24
2019-03-28T06:03:46.345Z,81.54
2019-03-28T06:06:17.153Z,81.39
2019-03-28T06:08:47.085Z,81.64
2019-03-28T06:11:16.818Z,81.54
2019-03-28T06:13:46.577Z,80.98
2019-03-28T06:16:16.418Z,80.74
2019-03-28T06:18:48.922Z,80.75
2019-03-28T06:21:18.770Z,79.95
2019-03-28T06:23:48.540Z,79.58
2019-03-28T06:26:18.386Z,79.40
2019-03-28T06:28:48.126Z,79.39
2019-03-28T06:31:17.869Z,79.34
2019-03-28T06:33:47.634Z,78.83
2019-03-28T06:36:17.443Z,78.47
2019-03-28T06:38:47.153Z,78.46
2019-03-28T06:41:16.913Z,77.92
2019-03-28T06:43:46.790Z,77.99
2019-03-28T06:46:16.999Z,77.30
2019-03-28T06:48:47.258Z,77.21
2019-03-28T06:51:17.132Z,76.63
2019-03-28T06:53:46.920Z,77.17
2019-03-28T06:56:17.310Z,76.38
2019-03-28T06:58:47.334Z,76.58
2019-03-28T07:01:17.056Z,76.18
2019-03-28T07:03:47.473Z,76.27
2019-03-28T07:06:17.304Z,76.41
2019-03-28T07:08:47.073Z,75.03
2019-03-28T07:11:16.919Z,75.01
2019-03-28T07:13:46.699Z,74.60
2019-03-28T07:16:16.544Z,75.70
2019-03-28T07:18:46.655Z,74.66
2019-03-28T07:21:16.469Z,74.63
2019-03-28T07:23:46.223Z,74.95
2019-03-28T07:26:16.378Z,75.24
2019-03-28T07:28:46.149Z,74.64
2019-03-28T07:31:15.923Z,74.84
2019-03-28T07:33:45.650Z,74.36
2019-03-28T07:36:15.674Z,75.23
2019-03-28T07:38:45.390Z,74.12
2019-03-28T07:41:16.511Z,74.34
2019-03-28T07:43:46.434Z,73.95
2019-03-28T07:46:16.165Z,73.63
2019-03-28T07:48:46.367Z,74.32
2019-03-28T07:51:16.222Z,74.28
2019-03-28T07:53:45.941Z,74.71
2019-03-28T07:56:16.994Z,74.33
2019-03-28T07:58:46.727Z,74.60
2019-03-28T08:01:18.042Z,74.70
2019-03-28T08:03:48.050Z,74.61
2019-03-28T08:06:17.767Z,74.71
2019-03-28T08:08:47.517Z,74.57
2019-03-28T08:11:17.322Z,74.54
2019-03-28T08:13:47.181Z,74.91
2019-03-28T08:16:17.030Z,74.52
2019-03-28T08:18:46.735Z,74.09
2019-03-28T08:21:16.589Z,73.50
2019-03-28T08:23:46.321Z,73.37
2019-03-28T08:26:16.218Z,72.72
2019-03-28T08:28:46.034Z,71.95
2019-03-28T08:31:16.163Z,72.62
2019-03-28T08:33:46.180Z,70.70
2019-03-28T08:36:16.645Z,70.30
2019-03-28T08:38:48.109Z,69.68
2019-03-28T08:41:17.863Z,67.33
2019-03-28T08:43:47.669Z,65.77
2019-03-28T08:46:17.420Z,64.93
2019-03-28T08:48:47.851Z,66.64
2019-03-28T08:51:17.610Z,67.81
2019-03-28T08:53:47.363Z,64.26
2019-03-28T08:56:17.121Z,64.07
2019-03-28T08:58:46.937Z,62.84
2019-03-28T09:01:16.667Z,61.62
2019-03-28T09:03:49.616Z,60.52
2019-03-28T09:06:17.959Z,61.30
2019-03-28T09:08:47.704Z,60.21
2019-03-28T09:11:17.475Z,59.19
2019-03-28T09:13:47.756Z,61.26
2019-03-28T09:16:17.537Z,60.70
2019-03-28T09:18:47.310Z,61.04
2019-03-28T09:21:17.024Z,64.25
2019-03-28T09:23:46.853Z,65.21
2019-03-28T09:26:16.713Z,65.85
2019-03-28T09:28:46.487Z,65.61
2019-03-28T09:31:20.216Z,67.51
2019-03-28T09:33:48.287Z,66.21
2019-03-28T09:36:18.037Z,64.69
2019-03-28T09:38:47.743Z,65.51
2019-03-28T09:41:18.010Z,65.75
2019-03-28T09:43:55.194Z,65.23
2019-03-28T09:46:19.275Z,65.30
2019-03-28T09:48:49.123Z,65.70
2019-03-28T09:51:18.902Z,64.65
2019-03-28T09:53:48.625Z,64.23
2019-03-28T09:56:18.370Z,64.67
2019-03-28T09:58:48.230Z,65.40
2019-03-28T10:01:17.994Z,63.50
2019-03-28T10:03:47.898Z,62.46
2019-03-28T10:06:17.624Z,64.33
2019-03-28T10:08:47.462Z,62.10
2019-03-28T10:11:17.378Z,62.88
2019-03-28T10:13:47.106Z,62.24
2019-03-28T10:16:16.956Z,62.40
2019-03-28T10:18:46.894Z,61.06
2019-03-28T10:21:16.900Z,59.88
2019-03-28T10:23:47.726Z,61.82
2019-03-28T10:26:17.612Z,62.76
2019-03-28T10:28:47.331Z,62.18
2019-03-28T10:31:17.534Z,61.25
2019-03-28T10:33:47.365Z,59.32
2019-03-28T10:36:17.120Z,57.66
2019-03-28T10:38:46.893Z,60.52
2019-03-28T10:41:17.118Z,60.69
2019-03-28T10:43:46.872Z,60.69
2019-03-28T10:46:16.639Z,58.59
2019-03-28T10:48:46.471Z,57.17
2019-03-28T10:51:16.245Z,60.27
2019-03-28T10:53:45.992Z,59.25
2019-03-28T10:56:21.818Z,56.61
2019-03-28T10:58:47.627Z,57.98
2019-03-28T11:01:32.511Z,55.50
2019-03-28T11:03:49.017Z,55.71
2019-03-28T11:06:18.751Z,57.58
2019-03-28T11:08:48.534Z,58.84
2019-03-28T11:11:18.259Z,57.75
2019-03-28T11:13:48.045Z,56.83
2019-03-28T11:16:17.850Z,54.71
2019-03-28T11:18:47.620Z,56.95
2019-03-28T11:21:17.372Z,55.38
2019-03-28T11:23:47.235Z,55.79
2019-03-28T11:26:16.960Z,55.20
2019-03-28T11:28:46.994Z,56.66
2019-03-28T11:31:17.656Z,54.63
2019-03-28T11:33:47.657Z,57.32
2019-03-28T11:36:17.697Z,57.91
2019-03-28T11:38:47.460Z,59.16
2019-03-28T11:41:17.384Z,58.20
2019-03-28T11:43:47.161Z,59.46
2019-03-28T11:46:16.899Z,59.08
2019-03-28T11:48:46.686Z,58.71
2019-03-28T11:51:16.420Z,56.53
2019-03-28T11:53:46.147Z,56.19
2019-03-28T11:56:16.209Z,57.21
2019-03-28T11:58:46.025Z,57.03
2019-03-28T12:01:15.801Z,56.40
2019-03-28T12:03:45.670Z,55.51
2019-03-28T12:06:15.442Z,54.89
2019-03-28T12:08:45.572Z,55.99
2019-03-28T12:11:15.434Z,55.68
2019-03-28T12:13:48.411Z,56.93
2019-03-28T12:16:18.139Z,55.64
2019-03-28T12:18:47.919Z,56.29
2019-03-28T12:21:18.491Z,55.08
2019-03-28T12:23:48.284Z,54.93
2019-03-28T12:26:18.146Z,54.52
2019-03-28T12:28:47.919Z,54.68
2019-03-28T12:31:17.687Z,54.46
2019-03-28T12:33:47.559Z,57.89
2019-03-28T12:36:17.307Z,55.88
2019-03-28T12:38:47.027Z,54.99
2019-03-28T12:41:16.992Z,55.40
2019-03-28T12:43:46.732Z,55.58
2019-03-28T12:46:16.447Z,54.93
2019-03-28T12:48:46.232Z,55.38
2019-03-28T12:51:15.970Z,55.25
2019-03-28T12:53:45.995Z,55.69
2019-03-28T12:56:15.782Z,57.21
2019-03-28T12:58:45.611Z,56.43
2019-03-28T13:01:15.354Z,55.35
2019-03-28T13:03:46.318Z,55.40
2019-03-28T13:06:16.451Z,58.82
2019-03-28T13:08:46.626Z,57.14
2019-03-28T13:11:16.373Z,56.46
2019-03-28T13:13:46.120Z,55.69
2019-03-28T13:16:15.875Z,55.53
2019-03-28T13:18:45.707Z,57.36
2019-03-28T13:21:15.486Z,56.53
2019-03-28T13:23:45.330Z,55.78
2019-03-28T13:26:15.346Z,57.09
2019-03-28T13:28:45.196Z,56.23
2019-03-28T13:31:14.884Z,58.13
2019-03-28T13:33:44.580Z,60.05
2019-03-28T13:36:14.357Z,60.35
2019-03-28T13:38:44.061Z,61.14
2019-03-28T13:41:13.802Z,61.49
2019-03-28T13:43:43.639Z,61.25
2019-03-28T13:46:13.350Z,61.69
2019-03-28T13:48:43.104Z,62.46
2019-03-28T13:51:12.932Z,61.58
2019-03-28T13:53:42.670Z,60.71
2019-03-28T13:56:12.410Z,60.79
2019-03-28T13:58:42.149Z,61.42
2019-03-28T14:01:11.942Z,59.80
2019-03-28T14:03:41.667Z,59.60
2019-03-28T14:06:11.376Z,59.38
2019-03-28T14:08:41.123Z,59.58
2019-03-28T14:11:10.916Z,60.07
2019-03-28T14:13:40.666Z,59.44
2019-03-28T14:16:10.388Z,60.08
2019-03-28T14:18:40.089Z,59.52
2019-03-28T14:21:09.805Z,60.66
2019-03-28T14:23:39.508Z,60.54
2019-03-28T14:26:09.262Z,59.94
2019-03-28T14:28:40.140Z,59.91
2019-03-28T14:31:09.879Z,60.11
2019-03-28T14:33:39.616Z,59.31
2019-03-28T14:36:09.320Z,58.51
2019-03-28T14:38:39.020Z,58.01
2019-03-28T14:41:08.754Z,57.58
2019-03-28T14:43:38.689Z,57.08
2019-03-28T14:46:08.410Z,57.01
2019-03-28T14:48:38.136Z,57.13
2019-03-28T14:51:08.132Z,56.54
2019-03-28T14:53:37.882Z,55.04
2019-03-28T14:56:07.589Z,55.05
2019-03-28T14:58:38.105Z,54.54
2019-03-28T15:01:07.798Z,54.50
2019-03-28T15:03:37.536Z,55.31
2019-03-28T15:06:07.229Z,55.14
2019-03-28T15:08:36.940Z,55.74
2019-03-28T15:11:06.680Z,56.27
2019-03-28T15:13:36.394Z,57.31
2019-03-28T15:16:06.160Z,56.76
2019-03-28T15:18:36.169Z,56.52
2019-03-28T15:21:06.018Z,57.59
2019-03-28T15:23:35.764Z,57.17
2019-03-28T15:26:05.665Z,57.01
2019-03-28T15:28:35.479Z,57.73
2019-03-28T15:31:05.217Z,58.21
2019-03-28T15:33:39.851Z,58.31
2019-03-28T15:36:06.372Z,56.27
2019-03-28T15:38:36.079Z,56.88
2019-03-28T15:41:05.915Z,57.17
2019-03-28T15:43:35.654Z,57.70
2019-03-28T15:46:05.403Z,58.07
2019-03-28T15:48:35.682Z,58.50
2019-03-28T15:51:05.658Z,58.78
2019-03-28T15:53:35.410Z,57.90
2019-03-28T15:56:05.181Z,57.13
2019-03-28T15:58:34.912Z,57.44
2019-03-28T16:01:05.858Z,57.78
2019-03-28T16:03:35.636Z,57.72
2019-03-28T16:06:05.358Z,58.09
2019-03-28T16:08:35.146Z,59.32
2019-03-28T16:11:04.956Z,58.73
2019-03-28T16:13:37.427Z,59.02
2019-03-28T16:16:06.353Z,59.70
2019-03-28T16:18:36.037Z,60.24
2019-03-28T16:21:05.843Z,59.04
2019-03-28T16:23:35.606Z,59.46
2019-03-28T16:26:05.406Z,58.92
2019-03-28T16:28:35.181Z,59.68
2019-03-28T16:31:04.947Z,59.86
2019-03-28T16:33:34.669Z,59.38
2019-03-28T16:36:04.424Z,59.74
2019-03-28T16:38:34.243Z,60.39
2019-03-28T16:41:03.992Z,60.74
2019-03-28T16:43:34.257Z,60.72
2019-03-28T16:46:07.562Z,60.52
2019-03-28T16:48:35.688Z,60.63
2019-03-28T16:51:06.081Z,60.81
2019-03-28T16:53:35.962Z,60.49
2019-03-28T16:56:05.630Z,60.89
2019-03-28T16:58:35.520Z,60.56
2019-03-28T17:01:05.245Z,60.57
2019-03-28T17:03:34.950Z,60.95
2019-03-28T17:06:05.005Z,61.08
2019-03-28T17:08:35.151Z,61.39
2019-03-28T17:11:05.062Z,61.14
2019-03-28T17:13:34.760Z,61.39
2019-03-28T17:16:04.642Z,60.93
2019-03-28T17:18:34.379Z,61.42
2019-03-28T17:21:04.183Z,62.11
2019-03-28T17:23:33.979Z,62.64
2019-03-28T17:26:04.049Z,62.61
2019-03-28T17:28:33.879Z,62.65
2019-03-28T17:31:03.593Z,62.30
2019-03-28T17:33:33.328Z,62.43
2019-03-28T17:36:03.021Z,62.24
2019-03-28T17:38:32.755Z,62.42
2019-03-28T17:41:03.115Z,62.69
2019-03-28T17:43:33.929Z,62.49
2019-03-28T17:46:03.839Z,61.62
2019-03-28T17:48:33.602Z,62.47
2019-03-28T17:51:03.338Z,62.58
2019-03-28T17:53:33.925Z,62.64
2019-03-28T17:56:04.070Z,62.73
2019-03-28T17:58:33.829Z,62.24
2019-03-28T18:01:03.638Z,61.89
2019-03-28T18:03:33.442Z,62.56
2019-03-28T18:06:03.263Z,63.22
2019-03-28T18:08:32.980Z,63.74
2019-03-28T18:11:02.783Z,64.09
2019-03-28T18:13:32.526Z,64.34
2019-03-28T18:16:02.340Z,64.33
2019-03-28T18:18:32.141Z,65.02
2019-03-28T18:21:02.571Z,65.21
2019-03-28T18:23:32.311Z,65.34
2019-03-28T18:26:02.591Z,65.58
2019-03-28T18:28:32.721Z,66.06
2019-03-28T18:31:02.451Z,66.36
2019-03-28T18:33:32.216Z,66.83
2019-03-28T18:36:03.267Z,67.29
2019-03-28T18:38:33.013Z,67.28
2019-03-28T18:41:02.949Z,67.45
2019-03-28T18:43:34.856Z,67.21
2019-03-28T18:46:04.676Z,66.65
2019-03-28T18:48:36.644Z,66.55
2019-03-28T18:51:06.157Z,66.88
2019-03-28T18:53:35.867Z,66.81
2019-03-28T18:56:05.738Z,65.96
2019-03-28T18:58:35.471Z,65.89
2019-03-28T19:01:05.381Z,65.29
2019-03-28T19:03:35.155Z,65.10
2019-03-28T19:06:05.368Z,64.67
2019-03-28T19:08:35.124Z,64.52
2019-03-28T19:11:04.881Z,64.65
2019-03-28T19:13:34.718Z,65.17
2019-03-28T19:16:04.512Z,65.41
2019-03-28T19:18:34.402Z,65.49
2019-03-28T19:21:04.149Z,65.23
2019-03-28T19:23:33.930Z,65.62
2019-03-28T19:26:04.078Z,66.01
2019-03-28T19:28:33.922Z,65.97
2019-03-28T19:31:05.000Z,65.43
2019-03-28T19:33:38.093Z,65.82
2019-03-28T19:36:06.658Z,64.50
2019-03-28T19:38:36.607Z,64.87
2019-03-28T19:41:06.402Z,65.59
2019-03-28T19:43:36.894Z,65.10
2019-03-28T19:46:07.884Z,64.78
2019-03-28T19:48:39.694Z,65.10
2019-03-28T19:51:12.366Z,65.02
2019-03-28T19:53:42.291Z,64.97
2019-03-28T19:56:12.483Z,65.11
2019-03-28T19:58:43.430Z,65.80
2019-03-28T20:01:13.600Z,66.32
2019-03-28T20:03:46.708Z,66.53
2019-03-28T20:06:21.954Z,65.90
2019-03-28T20:08:46.950Z,65.19
2019-03-28T20:11:18.354Z,64.78
2019-03-28T20:13:48.353Z,64.75
2019-03-28T20:16:18.129Z,64.59
2019-03-28T20:18:48.054Z,65.10
2019-03-28T20:21:17.816Z,65.12
2019-03-28T20:23:49.439Z,65.32
2019-03-28T20:26:21.279Z,65.75
2019-03-28T20:28:51.150Z,66.06
2019-03-28T20:31:21.037Z,66.84
2019-03-28T20:33:50.935Z,67.17
2019-03-28T20:36:37.055Z,67.53
2019-03-28T20:39:03.706Z,67.90
2019-03-28T20:41:25.283Z,68.57
2019-03-28T20:43:55.208Z,68.69
2019-03-28T20:46:24.982Z,68.91
2019-03-28T20:48:54.776Z,69.02
2019-03-28T20:51:24.936Z,68.76
2019-03-28T20:53:55.681Z,69.09
2019-03-28T20:56:25.462Z,69.47
2019-03-28T20:58:55.642Z,69.43
2019-03-28T21:01:25.513Z,69.57
2019-03-28T21:03:55.692Z,69.62
2019-03-28T21:06:28.518Z,69.71
2019-03-28T21:08:58.285Z,69.94
2019-03-28T21:11:29.502Z,70.10
2019-03-28T21:13:59.430Z,70.34
2019-03-28T21:16:29.229Z,69.83
2019-03-28T21:18:59.143Z,70.15
2019-03-28T21:21:31.199Z,70.54
2019-03-28T21:24:01.044Z,71.16
2019-03-28T21:26:30.881Z,71.25
2019-03-28T21:29:00.676Z,71.36
2019-03-28T21:31:30.465Z,71.82
2019-03-28T21:34:00.246Z,71.78
2019-03-28T21:36:30.619Z,71.47
2019-03-28T21:39:03.240Z,71.88
2019-03-28T21:41:33.065Z,71.92
2019-03-28T21:44:02.811Z,72.37
2019-03-28T21:46:32.909Z,72.52
2019-03-28T21:49:02.973Z,72.69
2019-03-28T21:51:32.741Z,72.58
2019-03-28T21:54:04.990Z,72.95
2019-03-28T21:56:34.034Z,72.54
2019-03-28T21:59:03.859Z,72.62
2019-03-28T22:01:33.821Z,72.74
2019-03-28T22:04:03.545Z,73.00
2019-03-28T22:06:42.895Z,72.88
2019-03-28T22:09:06.951Z,72.86
2019-03-28T22:11:36.799Z,72.94
2019-03-28T22:14:06.842Z,72.58
2019-03-28T22:16:36.550Z,72.70
2019-03-28T22:19:06.386Z,72.83
2019-03-28T22:21:36.226Z,73.73
2019-03-28T22:24:05.915Z,73.65
2019-03-28T22:26:35.652Z,73.45
2019-03-28T22:29:05.625Z,73.60
2019-03-28T22:31:35.378Z,73.82
2019-03-28T22:34:05.322Z,74.01
2019-03-28T22:36:35.060Z,74.45
2019-03-28T22:39:06.406Z,74.46
2019-03-28T22:41:36.193Z,74.87
2019-03-28T22:44:05.901Z,75.52
2019-03-28T22:46:39.282Z,75.46
2019-03-28T22:49:07.121Z,74.99
2019-03-28T22:51:36.966Z,75.35
2019-03-28T22:54:06.688Z,75.04
2019-03-28T22:56:36.514Z,75.30
2019-03-28T22:59:06.226Z,75.58
2019-03-28T23:01:36.221Z,75.40
2019-03-28T23:04:06.650Z,75.31
2019-03-28T23:06:36.362Z,74.95
2019-03-28T23:09:07.020Z,75.53
2019-03-28T23:11:36.866Z,75.75
2019-03-28T23:14:06.577Z,76.15
2019-03-28T23:16:36.957Z,76.22
2019-03-28T23:19:06.657Z,76.71
2019-03-28T23:21:36.374Z,76.17
2019-03-28T23:24:06.117Z,76.12
2019-03-28T23:26:35.894Z,76.27
2019-03-28T23:29:05.595Z,75.76
2019-03-28T23:31:35.301Z,76.00
2019-03-28T23:34:05.061Z,75.82
2019-03-28T23:36:34.767Z,75.40
2019-03-28T23:39:05.535Z,75.73
2019-03-28T23:41:35.219Z,75.30
2019-03-28T23:44:04.919Z,75.16
2019-03-28T23:46:34.844Z,75.67
2019-03-28T23:49:04.621Z,76.06
2019-03-28T23:51:34.383Z,76.10
2019-03-28T23:54:07.262Z,75.89
2019-03-28T23:56:37.242Z,76.26
2019-03-28T23:59:10.510Z,76.94
